Huvudsida
METAR-TAF:

METAR-TAF

Flygplatser :

Stords flygplats. Sørstokken

Stords, Norge

latitud: 59-48N, longitud: 005-21E, höjd: 49 m

Aktuellt väderrapport

Denna rapport gjordes för 4 timmar och 2 minuter sedan, klockan 18:20 UTC
Vind 7 kt från ost
Temperatur 3°C
Fuktighet 56%
Tryck 999 hPa
Sikt 10 km eller mer
Inga moln under 1 500 m eller inga cumulonimbus

METAR: ENSO 111820Z 09007KT CAVOK 03/M05 Q0999

Tid: 23:22 (22:22 UTC)

Väderprognos

Denna rapport gjordes för 8 timmar och 22 minuter sedan, klockan 14:00 UTC
Prognos gäller från 11 kl. 15 UTC till 11 kl. 18 UTC
Vind 8 kt från ost
Sikt 10 km eller mer
Få moln på en höjd av 4000 ft
Brutna moln på en höjd av 8000 ft

TAF: ENSO 111400Z 1115/1118 10008KT 9999 FEW040 BKN080

Aktuella väderrapporter och prognoser från 4000 flygplatser (METAR- och TAF-rapporter).

De tillgängliga stationerna syns som gula och röda prickar på kartan.

För musen över prickarna för att se namnen på stationerna.

Klicka sedan för att få väderrapporter och prognoser.

För att ändra kartan: Klicka på de gröna knapparna med ett svart kors på för att zooma in; den gröna knappen med ett streck på för att zooma ut; eller på de gröna pilarna för angränsande kartor.


METAR-TAF: